createdAt,value
2019-03-28T00:00:22.038Z,85.90
2019-03-28T00:01:22.031Z,85.52
2019-03-28T00:02:22.019Z,85.33
2019-03-28T00:03:22.010Z,85.42
2019-03-28T00:04:21.996Z,85.71
2019-03-28T00:05:21.986Z,85.90
2019-03-28T00:06:21.977Z,86.57
2019-03-28T00:07:24.186Z,86.94
2019-03-28T00:08:21.955Z,87.23
2019-03-28T00:09:21.945Z,87.42
2019-03-28T00:10:21.935Z,86.38
2019-03-28T00:11:21.926Z,86.28
2019-03-28T00:12:21.916Z,86.18
2019-03-28T00:13:21.904Z,86.18
2019-03-28T00:14:21.895Z,85.99
2019-03-28T00:15:21.885Z,86.38
2019-03-28T00:16:21.874Z,85.61
2019-03-28T00:17:21.864Z,85.80
2019-03-28T00:18:21.859Z,86.28
2019-03-28T00:19:21.845Z,86.28
2019-03-28T00:20:21.834Z,86.76
2019-03-28T00:21:21.824Z,86.94
2019-03-28T00:22:21.814Z,87.61
2019-03-28T00:23:22.105Z,87.90
2019-03-28T00:24:22.286Z,88.46
2019-03-28T00:25:21.783Z,88.94
2019-03-28T00:26:30.031Z,88.85
2019-03-28T00:27:21.763Z,88.33
2019-03-28T00:28:21.751Z,88.71
2019-03-28T00:29:21.744Z,88.28
2019-03-28T00:30:21.732Z,87.76
2019-03-28T00:31:21.722Z,87.95
2019-03-28T00:32:21.711Z,88.04
2019-03-28T00:33:21.702Z,88.52
2019-03-28T00:34:21.692Z,88.04
2019-03-28T00:35:21.687Z,87.80
2019-03-28T00:36:21.671Z,87.95
2019-03-28T00:37:21.661Z,88.04
2019-03-28T00:38:21.652Z,88.42
2019-03-28T00:39:21.640Z,88.33
2019-03-28T00:40:21.630Z,88.33
2019-03-28T00:41:21.620Z,88.71
2019-03-28T00:42:21.610Z,89.61
2019-03-28T00:43:21.600Z,89.00
2019-03-28T00:44:21.589Z,89.66
2019-03-28T00:45:21.579Z,89.09
2019-03-28T00:46:21.569Z,88.94
2019-03-28T00:47:21.560Z,88.46
2019-03-28T00:48:21.548Z,88.75
2019-03-28T00:49:21.539Z,89.61
2019-03-28T00:50:21.531Z,88.80
2019-03-28T00:51:21.518Z,89.09
2019-03-28T00:52:21.507Z,88.90
2019-03-28T00:53:21.497Z,88.71
2019-03-28T00:54:21.487Z,89.00
2019-03-28T00:55:21.478Z,88.90
2019-03-28T00:56:21.466Z,88.90
2019-03-28T00:57:21.456Z,88.61
2019-03-28T00:58:21.447Z,88.90
2019-03-28T00:59:21.436Z,88.75
2019-03-28T01:00:21.425Z,88.90
2019-03-28T01:01:21.416Z,89.14
2019-03-28T01:02:21.405Z,89.51
2019-03-28T01:03:21.397Z,90.04
2019-03-28T01:04:21.386Z,89.47
2019-03-28T01:05:21.374Z,89.37
2019-03-28T01:06:21.365Z,89.56
2019-03-28T01:07:22.064Z,89.94
2019-03-28T01:08:21.343Z,90.04
2019-03-28T01:09:21.333Z,90.47
2019-03-28T01:10:22.139Z,90.61
2019-03-28T01:11:21.313Z,90.75
2019-03-28T01:12:21.323Z,91.22
2019-03-28T01:13:21.292Z,91.61
2019-03-28T01:14:21.282Z,91.75
2019-03-28T01:15:21.274Z,92.27
2019-03-28T01:16:21.261Z,91.94
2019-03-28T01:17:21.251Z,91.99
2019-03-28T01:18:21.241Z,92.22
2019-03-28T01:19:21.231Z,92.13
2019-03-28T01:20:21.223Z,92.03
2019-03-28T01:21:21.210Z,92.13
2019-03-28T01:22:21.202Z,91.85
2019-03-28T01:23:21.284Z,91.85
2019-03-28T01:24:21.180Z,92.51
2019-03-28T01:25:21.170Z,92.41
2019-03-28T01:26:21.161Z,92.99
2019-03-28T01:27:21.150Z,92.22
2019-03-28T01:28:21.139Z,92.51
2019-03-28T01:29:21.130Z,91.66
2019-03-28T01:30:21.146Z,91.94
2019-03-28T01:31:21.109Z,92.32
2019-03-28T01:32:21.098Z,92.61
2019-03-28T01:33:21.088Z,92.41
2019-03-28T01:34:21.082Z,92.89
2019-03-28T01:35:21.068Z,93.18
2019-03-28T01:36:21.056Z,92.70
2019-03-28T01:37:21.047Z,92.80
2019-03-28T01:38:21.037Z,92.03
2019-03-28T01:39:21.027Z,91.66
2019-03-28T01:40:21.016Z,91.94
2019-03-28T01:41:21.057Z,92.22
2019-03-28T01:42:20.995Z,92.03
2019-03-28T01:43:20.985Z,92.03
2019-03-28T01:44:20.975Z,92.13
2019-03-28T01:45:20.964Z,91.66
2019-03-28T01:46:20.956Z,91.56
2019-03-28T01:47:20.945Z,91.56
2019-03-28T01:48:20.934Z,91.85
2019-03-28T01:49:20.925Z,92.13
2019-03-28T01:50:20.914Z,92.61
2019-03-28T01:51:20.904Z,92.61
2019-03-28T01:52:21.402Z,92.75
2019-03-28T01:53:20.882Z,92.99
2019-03-28T01:54:20.875Z,93.55
2019-03-28T01:55:21.202Z,93.46
2019-03-28T01:56:20.851Z,93.18
2019-03-28T01:57:20.844Z,93.37
2019-03-28T01:58:20.832Z,92.89
2019-03-28T01:59:21.237Z,92.80
2019-03-28T02:00:20.811Z,92.13
2019-03-28T02:01:20.801Z,91.94
2019-03-28T02:02:20.791Z,91.37
2019-03-28T02:03:20.781Z,91.28
2019-03-28T02:04:20.770Z,91.08
2019-03-28T02:05:20.759Z,91.47
2019-03-28T02:06:20.750Z,91.47
2019-03-28T02:07:20.742Z,91.85
2019-03-28T02:08:20.731Z,91.47
2019-03-28T02:09:20.719Z,91.47
2019-03-28T02:10:20.709Z,91.37
2019-03-28T02:11:20.698Z,90.04
2019-03-28T02:12:20.687Z,89.00
2019-03-28T02:13:20.677Z,88.13
2019-03-28T02:14:20.668Z,88.42
2019-03-28T02:15:20.657Z,88.71
2019-03-28T02:16:21.422Z,89.37
2019-03-28T02:17:20.636Z,89.70
2019-03-28T02:18:20.626Z,89.80
2019-03-28T02:19:20.616Z,90.52
2019-03-28T02:20:20.605Z,90.14
2019-03-28T02:21:20.595Z,90.23
2019-03-28T02:22:20.587Z,91.18
2019-03-28T02:23:20.576Z,91.47
2019-03-28T02:24:20.564Z,91.75
2019-03-28T02:25:20.553Z,91.89
2019-03-28T02:26:20.547Z,91.56
2019-03-28T02:27:24.344Z,91.75
2019-03-28T02:28:20.523Z,91.56
2019-03-28T02:29:20.512Z,91.56
2019-03-28T02:30:20.505Z,91.37
2019-03-28T02:31:20.493Z,90.99
2019-03-28T02:32:20.482Z,90.99
2019-03-28T02:33:20.477Z,90.61
2019-03-28T02:34:20.462Z,89.85
2019-03-28T02:35:20.453Z,90.04
2019-03-28T02:36:20.447Z,90.14
2019-03-28T02:37:20.433Z,90.70
2019-03-28T02:38:20.420Z,90.89
2019-03-28T02:39:20.411Z,90.89
2019-03-28T02:40:20.400Z,90.33
2019-03-28T02:41:20.394Z,90.89
2019-03-28T02:42:20.381Z,91.18
2019-03-28T02:43:20.379Z,90.33
2019-03-28T02:44:20.358Z,89.94
2019-03-28T02:45:20.348Z,90.33
2019-03-28T02:46:20.340Z,90.52
2019-03-28T02:47:20.329Z,90.33
2019-03-28T02:48:20.323Z,90.04
2019-03-28T02:49:20.307Z,90.23
2019-03-28T02:50:20.300Z,90.52
2019-03-28T02:51:20.286Z,90.33
2019-03-28T02:52:20.278Z,89.94
2019-03-28T02:53:20.272Z,90.33
2019-03-28T02:54:20.256Z,91.18
2019-03-28T02:55:20.244Z,90.52
2019-03-28T02:56:20.234Z,90.52
2019-03-28T02:57:20.230Z,91.28
2019-03-28T02:58:20.216Z,90.99
2019-03-28T02:59:20.204Z,90.89
2019-03-28T03:00:20.965Z,91.18
2019-03-28T03:01:20.185Z,90.99
2019-03-28T03:02:20.174Z,90.99
2019-03-28T03:03:20.162Z,91.08
2019-03-28T03:04:20.150Z,91.08
2019-03-28T03:05:20.141Z,91.08
2019-03-28T03:06:20.130Z,91.37
2019-03-28T03:07:20.124Z,91.18
2019-03-28T03:08:20.113Z,91.37
2019-03-28T03:09:20.107Z,91.75
2019-03-28T03:10:20.092Z,91.75
2019-03-28T03:11:20.080Z,91.47
2019-03-28T03:12:20.068Z,91.66
2019-03-28T03:13:20.155Z,91.37
2019-03-28T03:14:20.048Z,91.66
2019-03-28T03:15:20.045Z,91.37
2019-03-28T03:16:20.027Z,91.47
2019-03-28T03:17:20.023Z,91.85
2019-03-28T03:18:21.653Z,91.75
2019-03-28T03:19:20.026Z,91.75
2019-03-28T03:20:19.992Z,91.08
2019-03-28T03:21:19.975Z,90.14
2019-03-28T03:22:19.977Z,90.14
2019-03-28T03:23:20.371Z,90.14
2019-03-28T03:24:19.965Z,89.66
2019-03-28T03:25:19.932Z,90.14
2019-03-28T03:26:19.927Z,90.04
2019-03-28T03:27:19.924Z,90.52
2019-03-28T03:28:19.909Z,90.23
2019-03-28T03:29:19.892Z,90.04
2019-03-28T03:30:19.892Z,89.75
2019-03-28T03:31:21.457Z,90.14
2019-03-28T03:32:19.876Z,89.75
2019-03-28T03:33:19.868Z,90.42
2019-03-28T03:34:19.840Z,89.37
2019-03-28T03:35:19.834Z,89.00
2019-03-28T03:36:19.818Z,89.37
2019-03-28T03:37:19.809Z,90.42
2019-03-28T03:38:19.798Z,90.14
2019-03-28T03:39:19.790Z,90.33
2019-03-28T03:40:19.776Z,89.94
2019-03-28T03:41:19.767Z,90.52
2019-03-28T03:42:19.764Z,90.14
2019-03-28T03:43:19.745Z,90.42
2019-03-28T03:44:19.733Z,90.04
2019-03-28T03:45:19.724Z,90.99
2019-03-28T03:46:19.767Z,90.33
2019-03-28T03:47:19.939Z,90.80
2019-03-28T03:48:19.698Z,90.23
2019-03-28T03:49:19.699Z,89.85
2019-03-28T03:50:19.673Z,89.85
2019-03-28T03:51:19.662Z,89.09
2019-03-28T03:52:19.653Z,89.00
2019-03-28T03:53:19.665Z,89.37
2019-03-28T03:54:19.636Z,89.37
2019-03-28T03:55:19.622Z,89.00
2019-03-28T03:56:19.611Z,89.37
2019-03-28T03:57:19.604Z,89.37
2019-03-28T03:58:19.591Z,89.85
2019-03-28T03:59:19.601Z,90.23
2019-03-28T04:00:19.565Z,89.94
2019-03-28T04:01:19.558Z,89.75
2019-03-28T04:02:19.546Z,90.14
2019-03-28T04:03:19.552Z,89.37
2019-03-28T04:04:19.529Z,89.18
2019-03-28T04:05:19.516Z,88.80
2019-03-28T04:06:19.529Z,90.04
2019-03-28T04:07:19.501Z,90.70
2019-03-28T04:08:19.504Z,90.33
2019-03-28T04:09:19.472Z,90.33
2019-03-28T04:10:19.464Z,90.42
2019-03-28T04:11:19.453Z,90.89
2019-03-28T04:12:19.439Z,90.61
2019-03-28T04:13:19.430Z,91.08
2019-03-28T04:14:19.487Z,91.37
2019-03-28T04:15:19.409Z,91.56
2019-03-28T04:16:19.407Z,90.89
2019-03-28T04:17:19.493Z,90.99
2019-03-28T04:18:22.128Z,90.80
2019-03-28T04:19:19.375Z,90.89
2019-03-28T04:20:19.355Z,90.89
2019-03-28T04:21:19.346Z,91.37
2019-03-28T04:22:19.339Z,90.99
2019-03-28T04:23:19.325Z,91.85
2019-03-28T04:24:19.314Z,91.94
2019-03-28T04:25:19.303Z,91.94
2019-03-28T04:26:19.310Z,92.22
2019-03-28T04:27:19.298Z,92.61
2019-03-28T04:28:31.340Z,92.32
2019-03-28T04:29:19.263Z,91.08
2019-03-28T04:30:19.256Z,89.94
2019-03-28T04:31:19.244Z,91.18
2019-03-28T04:32:19.231Z,91.66
2019-03-28T04:33:19.219Z,91.08
2019-03-28T04:34:19.209Z,90.42
2019-03-28T04:35:19.198Z,90.04
2019-03-28T04:36:19.187Z,89.09
2019-03-28T04:37:19.184Z,89.09
2019-03-28T04:38:19.167Z,89.94
2019-03-28T04:39:19.157Z,90.61
2019-03-28T04:40:19.149Z,90.14
2019-03-28T04:41:19.139Z,90.99
2019-03-28T04:42:19.127Z,91.37
2019-03-28T04:43:19.119Z,91.56
2019-03-28T04:44:19.104Z,91.94
2019-03-28T04:45:19.099Z,91.56
2019-03-28T04:46:19.086Z,91.56
2019-03-28T04:47:19.080Z,91.28
2019-03-28T04:48:19.062Z,91.37
2019-03-28T04:49:19.057Z,91.47
2019-03-28T04:50:19.042Z,91.94
2019-03-28T04:51:19.033Z,91.75
2019-03-28T04:52:19.415Z,91.75
2019-03-28T04:53:19.011Z,92.13
2019-03-28T04:54:19.002Z,92.13
2019-03-28T04:55:18.989Z,92.03
2019-03-28T04:56:18.981Z,92.32
2019-03-28T04:57:18.968Z,92.13
2019-03-28T04:58:21.575Z,91.85
2019-03-28T04:59:18.948Z,91.94
2019-03-28T05:00:18.938Z,91.85
2019-03-28T05:01:18.926Z,91.85
2019-03-28T05:02:18.917Z,92.13
2019-03-28T05:03:18.907Z,91.85
2019-03-28T05:04:21.064Z,92.32
2019-03-28T05:05:18.890Z,92.51
2019-03-28T05:06:18.879Z,92.51
2019-03-28T05:07:18.865Z,92.13
2019-03-28T05:08:18.853Z,91.94
2019-03-28T05:09:18.843Z,91.56
2019-03-28T05:10:18.883Z,91.56
2019-03-28T05:11:18.824Z,90.99
2019-03-28T05:12:18.814Z,90.99
2019-03-28T05:13:18.802Z,91.56
2019-03-28T05:14:18.791Z,91.66
2019-03-28T05:15:20.305Z,91.75
2019-03-28T05:16:18.776Z,92.51
2019-03-28T05:17:18.760Z,93.08
2019-03-28T05:18:18.754Z,93.08
2019-03-28T05:19:18.740Z,93.18
2019-03-28T05:20:18.729Z,93.08
2019-03-28T05:21:18.718Z,93.75
2019-03-28T05:22:18.708Z,93.75
2019-03-28T05:23:18.698Z,93.37
2019-03-28T05:24:18.688Z,93.08
2019-03-28T05:25:18.677Z,93.18
2019-03-28T05:26:18.667Z,93.27
2019-03-28T05:27:18.657Z,93.75
2019-03-28T05:28:18.655Z,93.55
2019-03-28T05:29:18.646Z,93.94
2019-03-28T05:30:18.626Z,94.32
2019-03-28T05:31:18.624Z,93.84
2019-03-28T05:32:18.604Z,93.75
2019-03-28T05:33:18.596Z,93.27
2019-03-28T05:34:18.584Z,92.41
2019-03-28T05:35:18.651Z,91.37
2019-03-28T05:36:18.723Z,92.13
2019-03-28T05:37:18.554Z,92.70
2019-03-28T05:38:18.543Z,92.61
2019-03-28T05:39:19.556Z,92.51
2019-03-28T05:40:18.527Z,92.99
2019-03-28T05:41:18.515Z,93.37
2019-03-28T05:42:18.502Z,93.65
2019-03-28T05:43:18.491Z,93.55
2019-03-28T05:44:18.481Z,93.75
2019-03-28T05:45:18.471Z,93.37
2019-03-28T05:46:18.460Z,93.18
2019-03-28T05:47:18.449Z,93.27
2019-03-28T05:48:18.440Z,93.18
2019-03-28T05:49:18.428Z,92.51
2019-03-28T05:50:18.420Z,91.94
2019-03-28T05:51:18.408Z,92.41
2019-03-28T05:52:18.405Z,92.51
2019-03-28T05:53:18.390Z,92.99
2019-03-28T05:54:18.378Z,93.37
2019-03-28T05:55:18.373Z,93.65
2019-03-28T05:56:18.359Z,93.75
2019-03-28T05:57:18.348Z,93.75
2019-03-28T05:58:18.341Z,93.37
2019-03-28T05:59:19.435Z,93.84
2019-03-28T06:00:18.314Z,93.94
2019-03-28T06:01:18.304Z,94.60
2019-03-28T06:02:18.299Z,94.32
2019-03-28T06:03:18.289Z,94.22
2019-03-28T06:04:18.273Z,94.32
2019-03-28T06:05:18.264Z,94.22
2019-03-28T06:06:18.449Z,94.98
2019-03-28T06:07:18.243Z,94.32
2019-03-28T06:08:18.232Z,95.08
2019-03-28T06:09:18.222Z,95.27
2019-03-28T06:10:18.215Z,94.32
2019-03-28T06:11:18.202Z,93.55
2019-03-28T06:12:19.220Z,93.08
2019-03-28T06:13:18.181Z,92.70
2019-03-28T06:14:18.173Z,93.18
2019-03-28T06:15:18.160Z,92.99
2019-03-28T06:16:18.151Z,93.94
2019-03-28T06:17:18.139Z,93.65
2019-03-28T06:18:18.131Z,93.27
2019-03-28T06:19:18.119Z,92.99
2019-03-28T06:20:18.109Z,93.27
2019-03-28T06:21:18.101Z,93.75
2019-03-28T06:22:18.087Z,93.37
2019-03-28T06:23:18.077Z,93.55
2019-03-28T06:24:18.066Z,93.08
2019-03-28T06:25:18.063Z,93.27
2019-03-28T06:26:18.047Z,92.22
2019-03-28T06:27:18.041Z,91.42
2019-03-28T06:28:18.025Z,90.61
2019-03-28T06:29:23.801Z,90.37
2019-03-28T06:30:18.439Z,90.52
2019-03-28T06:31:17.995Z,90.80
2019-03-28T06:32:17.985Z,90.99
2019-03-28T06:33:17.974Z,90.75
2019-03-28T06:34:17.965Z,90.56
2019-03-28T06:35:18.386Z,90.37
2019-03-28T06:36:17.945Z,90.37
2019-03-28T06:37:17.937Z,90.56
2019-03-28T06:38:17.923Z,90.18
2019-03-28T06:39:17.913Z,90.37
2019-03-28T06:40:17.906Z,89.89
2019-03-28T06:41:17.895Z,89.70
2019-03-28T06:42:17.882Z,90.08
2019-03-28T06:43:17.879Z,89.23
2019-03-28T06:44:17.861Z,89.14
2019-03-28T06:45:17.852Z,89.32
2019-03-28T06:46:17.842Z,90.08
2019-03-28T06:47:20.809Z,90.08
2019-03-28T06:48:17.821Z,89.89
2019-03-28T06:49:17.811Z,89.61
2019-03-28T06:50:17.801Z,89.70
2019-03-28T06:51:17.791Z,89.23
2019-03-28T06:52:17.780Z,88.66
2019-03-28T06:53:17.778Z,88.46
2019-03-28T06:54:17.761Z,89.23
2019-03-28T06:55:17.759Z,89.99
2019-03-28T06:56:17.741Z,89.37
2019-03-28T06:57:19.032Z,88.51
2019-03-28T06:58:17.722Z,89.08
2019-03-28T06:59:17.714Z,88.79
2019-03-28T07:00:17.705Z,88.79
2019-03-28T07:01:17.696Z,88.70
2019-03-28T07:02:17.683Z,89.18
2019-03-28T07:03:17.677Z,88.99
2019-03-28T07:04:17.675Z,88.79
2019-03-28T07:05:17.654Z,88.23
2019-03-28T07:06:17.648Z,88.04
2019-03-28T07:07:18.562Z,87.94
2019-03-28T07:08:17.625Z,88.13
2019-03-28T07:09:18.301Z,88.04
2019-03-28T07:10:17.609Z,88.23
2019-03-28T07:11:17.598Z,88.13
2019-03-28T07:12:18.388Z,87.27
2019-03-28T07:13:17.578Z,86.61
2019-03-28T07:14:17.570Z,86.51
2019-03-28T07:15:17.562Z,85.66
2019-03-28T07:16:17.554Z,85.94
2019-03-28T07:17:17.550Z,86.51
2019-03-28T07:18:17.530Z,86.51
2019-03-28T07:19:17.522Z,86.04
2019-03-28T07:20:17.512Z,85.75
2019-03-28T07:21:18.263Z,85.66
2019-03-28T07:22:17.496Z,85.47
2019-03-28T07:23:17.492Z,85.08
2019-03-28T07:24:17.476Z,85.18
2019-03-28T07:25:17.464Z,85.08
2019-03-28T07:26:17.457Z,85.37
2019-03-28T07:27:17.573Z,86.22
2019-03-28T07:28:17.438Z,86.32
2019-03-28T07:29:17.430Z,87.46
2019-03-28T07:30:17.417Z,87.65
2019-03-28T07:31:17.409Z,86.90
2019-03-28T07:32:17.399Z,87.27
2019-03-28T07:33:17.391Z,86.90
2019-03-28T07:34:17.385Z,86.32
2019-03-28T07:35:17.371Z,86.04
2019-03-28T07:36:17.362Z,85.28
2019-03-28T07:37:17.353Z,85.08
2019-03-28T07:38:17.346Z,85.56
2019-03-28T07:39:19.036Z,85.94
2019-03-28T07:40:17.331Z,85.28
2019-03-28T07:41:17.317Z,85.66
2019-03-28T07:42:17.311Z,86.04
2019-03-28T07:43:17.297Z,85.28
2019-03-28T07:44:17.292Z,84.99
2019-03-28T07:45:17.279Z,85.08
2019-03-28T07:46:17.271Z,85.28
2019-03-28T07:47:17.260Z,85.80
2019-03-28T07:48:17.253Z,86.42
2019-03-28T07:49:17.275Z,85.51
2019-03-28T07:50:17.233Z,86.36
2019-03-28T07:51:17.226Z,85.70
2019-03-28T07:52:19.998Z,85.99
2019-03-28T07:53:19.739Z,85.51
2019-03-28T07:54:17.198Z,84.84
2019-03-28T07:55:17.192Z,83.32
2019-03-28T07:56:17.175Z,82.65
2019-03-28T07:57:17.168Z,82.93
2019-03-28T07:58:17.162Z,82.27
2019-03-28T07:59:17.149Z,81.60
2019-03-28T08:00:17.140Z,82.37
2019-03-28T08:01:18.285Z,83.70
2019-03-28T08:02:17.123Z,83.61
2019-03-28T08:03:17.118Z,84.17
2019-03-28T08:04:17.105Z,83.32
2019-03-28T08:05:17.100Z,82.65
2019-03-28T08:06:17.088Z,82.93
2019-03-28T08:07:17.183Z,82.65
2019-03-28T08:08:17.070Z,82.27
2019-03-28T08:09:17.685Z,82.75
2019-03-28T08:10:17.053Z,82.18
2019-03-28T08:11:17.113Z,83.32
2019-03-28T08:12:22.972Z,84.46
2019-03-28T08:13:17.027Z,82.75
2019-03-28T08:14:17.023Z,82.56
2019-03-28T08:15:17.009Z,82.93
2019-03-28T08:16:16.999Z,81.89
2019-03-28T08:17:16.992Z,82.08
2019-03-28T08:18:16.981Z,81.60
2019-03-28T08:19:16.972Z,81.60
2019-03-28T08:20:16.968Z,82.08
2019-03-28T08:21:16.955Z,83.55
2019-03-28T08:22:16.947Z,82.60
2019-03-28T08:23:16.938Z,81.32
2019-03-28T08:24:16.930Z,81.60
2019-03-28T08:25:16.919Z,81.51
2019-03-28T08:26:16.910Z,82.93
2019-03-28T08:27:16.902Z,83.61
2019-03-28T08:28:16.892Z,83.89
2019-03-28T08:29:16.883Z,82.84
2019-03-28T08:30:19.306Z,82.75
2019-03-28T08:31:16.867Z,81.93
2019-03-28T08:32:16.856Z,82.69
2019-03-28T08:33:16.943Z,83.36
2019-03-28T08:34:16.839Z,82.89
2019-03-28T08:35:16.830Z,81.36
2019-03-28T08:36:16.821Z,82.12
2019-03-28T08:37:16.818Z,81.65
2019-03-28T08:38:16.807Z,82.69
2019-03-28T08:39:16.797Z,81.17
2019-03-28T08:40:16.788Z,80.50
2019-03-28T08:41:16.782Z,79.36
2019-03-28T08:42:16.769Z,79.46
2019-03-28T08:43:16.762Z,80.12
2019-03-28T08:44:16.753Z,80.12
2019-03-28T08:45:16.743Z,80.41
2019-03-28T08:46:16.734Z,79.64
2019-03-28T08:47:16.732Z,80.69
2019-03-28T08:48:16.723Z,80.50
2019-03-28T08:49:16.708Z,80.50
2019-03-28T08:50:16.700Z,80.60
2019-03-28T08:51:16.691Z,80.50
2019-03-28T08:52:16.683Z,80.12
2019-03-28T08:53:16.718Z,80.02
2019-03-28T08:54:16.665Z,79.27
2019-03-28T08:55:16.657Z,79.11
2019-03-28T08:56:16.648Z,79.30
2019-03-28T08:57:16.680Z,79.21
2019-03-28T08:58:16.632Z,78.41
2019-03-28T08:59:16.624Z,79.02
2019-03-28T09:00:17.351Z,78.59
2019-03-28T09:01:16.608Z,78.03
2019-03-28T09:02:16.613Z,77.93
2019-03-28T09:03:16.590Z,78.03
2019-03-28T09:04:16.581Z,78.50
2019-03-28T09:05:16.573Z,78.31
2019-03-28T09:06:17.238Z,78.03
2019-03-28T09:07:17.469Z,78.22
2019-03-28T09:08:16.548Z,78.03
2019-03-28T09:09:16.539Z,77.55
2019-03-28T09:10:16.533Z,77.74
2019-03-28T09:11:16.524Z,79.07
2019-03-28T09:12:16.515Z,78.31
2019-03-28T09:13:16.509Z,77.93
2019-03-28T09:14:16.499Z,78.22
2019-03-28T09:15:16.495Z,78.78
2019-03-28T09:16:16.481Z,79.17
2019-03-28T09:17:16.516Z,78.03
2019-03-28T09:18:16.466Z,79.07
2019-03-28T09:19:16.456Z,78.69
2019-03-28T09:20:16.447Z,78.50
2019-03-28T09:21:16.439Z,79.64
2019-03-28T09:22:16.431Z,79.55
2019-03-28T09:23:16.512Z,80.98
2019-03-28T09:24:16.413Z,80.69
2019-03-28T09:25:16.405Z,79.83
2019-03-28T09:26:16.400Z,80.98
2019-03-28T09:27:16.389Z,81.68
2019-03-28T09:28:16.392Z,80.50
2019-03-28T09:29:16.373Z,79.97
2019-03-28T09:30:16.410Z,80.69
2019-03-28T09:31:20.161Z,80.79
2019-03-28T09:32:16.344Z,81.49
2019-03-28T09:33:16.339Z,80.64
2019-03-28T09:34:16.331Z,80.26
2019-03-28T09:35:16.320Z,79.97
2019-03-28T09:36:16.314Z,79.17
2019-03-28T09:37:16.312Z,78.50
2019-03-28T09:38:16.295Z,78.12
2019-03-28T09:39:16.286Z,79.46
2019-03-28T09:40:16.283Z,79.83
2019-03-28T09:41:16.267Z,80.44
2019-03-28T09:42:16.267Z,80.35
2019-03-28T09:43:16.261Z,80.73
2019-03-28T09:44:16.242Z,80.44
2019-03-28T09:45:16.235Z,80.07
2019-03-28T09:46:16.225Z,79.59
2019-03-28T09:47:16.216Z,79.49
2019-03-28T09:48:16.208Z,80.26
2019-03-28T09:49:16.200Z,80.83
2019-03-28T09:50:16.192Z,81.12
2019-03-28T09:51:16.191Z,80.64
2019-03-28T09:52:16.175Z,79.68
2019-03-28T09:53:16.168Z,79.68
2019-03-28T09:54:16.158Z,80.35
2019-03-28T09:55:18.713Z,79.88
2019-03-28T09:56:16.142Z,80.16
2019-03-28T09:57:16.134Z,79.78
2019-03-28T09:58:16.127Z,79.97
2019-03-28T09:59:16.120Z,79.02
2019-03-28T10:00:16.109Z,79.11
2019-03-28T10:01:16.101Z,80.92
2019-03-28T10:02:16.096Z,81.02
2019-03-28T10:03:16.088Z,80.64
2019-03-28T10:04:16.078Z,80.16
2019-03-28T10:05:16.067Z,79.97
2019-03-28T10:06:16.061Z,80.07
2019-03-28T10:07:16.052Z,79.02
2019-03-28T10:08:16.048Z,79.35
2019-03-28T10:09:16.035Z,78.67
2019-03-28T10:10:16.027Z,78.58
2019-03-28T10:11:16.020Z,78.58
2019-03-28T10:12:16.011Z,79.06
2019-03-28T10:13:16.003Z,78.96
2019-03-28T10:14:15.996Z,79.63
2019-03-28T10:15:15.998Z,78.54
2019-03-28T10:16:15.980Z,76.92
2019-03-28T10:17:15.971Z,76.82
2019-03-28T10:18:15.964Z,77.78
2019-03-28T10:19:15.956Z,79.49
2019-03-28T10:20:15.948Z,79.88
2019-03-28T10:21:15.939Z,78.83
2019-03-28T10:22:15.935Z,80.64
2019-03-28T10:23:15.924Z,80.30
2019-03-28T10:24:15.916Z,79.72
2019-03-28T10:25:15.913Z,79.44
2019-03-28T10:26:15.900Z,79.35
2019-03-28T10:27:18.965Z,80.68
2019-03-28T10:28:15.884Z,80.68
2019-03-28T10:29:15.877Z,80.58
2019-03-28T10:30:15.870Z,79.67
2019-03-28T10:31:17.011Z,79.19
2019-03-28T10:32:15.854Z,78.52
2019-03-28T10:33:15.846Z,78.14
2019-03-28T10:34:15.839Z,78.05
2019-03-28T10:35:15.833Z,78.43
2019-03-28T10:36:15.827Z,78.91
2019-03-28T10:37:15.820Z,77.23
2019-03-28T10:38:15.810Z,76.56
2019-03-28T10:39:15.803Z,77.00
2019-03-28T10:40:15.796Z,76.52
2019-03-28T10:41:15.788Z,76.90
2019-03-28T10:42:15.834Z,76.23
2019-03-28T10:43:15.775Z,76.81
2019-03-28T10:44:15.767Z,76.14
2019-03-28T10:45:15.760Z,75.09
2019-03-28T10:46:15.758Z,75.85
2019-03-28T10:47:15.750Z,76.71
2019-03-28T10:48:15.739Z,75.95
2019-03-28T10:49:15.992Z,75.18
2019-03-28T10:50:15.725Z,75.76
2019-03-28T10:51:15.718Z,74.71
2019-03-28T10:52:15.710Z,74.04
2019-03-28T10:53:15.704Z,74.13
2019-03-28T10:54:20.387Z,74.13
2019-03-28T10:55:16.627Z,75.28
2019-03-28T10:56:22.009Z,73.28
2019-03-28T10:57:29.464Z,73.08
2019-03-28T10:58:19.686Z,75.95
2019-03-28T10:59:23.184Z,76.52
2019-03-28T11:00:24.011Z,76.71
2019-03-28T11:01:18.178Z,75.18
2019-03-28T11:02:15.639Z,73.94
2019-03-28T11:03:15.640Z,73.56
2019-03-28T11:04:15.625Z,73.37
2019-03-28T11:05:15.619Z,73.18
2019-03-28T11:06:15.611Z,74.32
2019-03-28T11:07:15.604Z,73.18
2019-03-28T11:08:16.531Z,71.94
2019-03-28T11:09:15.591Z,73.08
2019-03-28T11:10:15.582Z,73.94
2019-03-28T11:11:15.576Z,72.32
2019-03-28T11:12:15.568Z,71.69
2019-03-28T11:13:15.561Z,70.45
2019-03-28T11:14:15.554Z,69.49
2019-03-28T11:15:15.547Z,71.59
2019-03-28T11:16:15.544Z,70.36
2019-03-28T11:17:15.533Z,67.49
2019-03-28T11:18:15.536Z,66.06
2019-03-28T11:19:16.842Z,67.36
2019-03-28T11:20:15.512Z,67.97
2019-03-28T11:21:15.505Z,67.30
2019-03-28T11:22:15.503Z,67.58
2019-03-28T11:23:15.492Z,68.26
2019-03-28T11:24:15.484Z,67.30
2019-03-28T11:25:15.478Z,68.26
2019-03-28T11:26:15.472Z,68.54
2019-03-28T11:27:15.466Z,68.54
2019-03-28T11:28:15.821Z,67.91
2019-03-28T11:29:15.455Z,66.66
2019-03-28T11:30:18.179Z,65.90
2019-03-28T11:31:15.441Z,65.61
2019-03-28T11:32:15.433Z,67.91
2019-03-28T11:33:15.433Z,67.62
2019-03-28T11:34:15.421Z,67.14
2019-03-28T11:35:15.419Z,65.84
2019-03-28T11:36:15.413Z,65.07
2019-03-28T11:37:25.828Z,63.73
2019-03-28T11:38:15.397Z,64.31
2019-03-28T11:39:15.392Z,64.02
2019-03-28T11:40:15.385Z,64.25
2019-03-28T11:41:15.385Z,64.43
2019-03-28T11:42:15.375Z,63.48
2019-03-28T11:43:15.370Z,63.29
2019-03-28T11:44:15.371Z,64.15
2019-03-28T11:45:15.363Z,63.86
2019-03-28T11:46:15.362Z,63.96
2019-03-28T11:47:15.348Z,64.82
2019-03-28T11:48:15.348Z,63.86
2019-03-28T11:49:15.339Z,64.34
2019-03-28T11:50:17.129Z,62.81
2019-03-28T11:51:15.331Z,62.62
2019-03-28T11:52:15.325Z,63.29
2019-03-28T11:53:15.317Z,60.99
2019-03-28T11:54:15.312Z,61.63
2019-03-28T11:55:15.307Z,63.35
2019-03-28T11:56:15.303Z,64.43
2019-03-28T11:57:15.932Z,62.62
2019-03-28T11:58:15.294Z,60.42
2019-03-28T11:59:15.287Z,61.28
2019-03-28T12:00:15.284Z,60.23
2019-03-28T12:01:15.279Z,61.66
2019-03-28T12:02:20.428Z,59.47
2019-03-28T12:03:15.269Z,59.75
2019-03-28T12:04:15.263Z,60.61
2019-03-28T12:05:15.312Z,58.92
2019-03-28T12:06:15.257Z,59.20
2019-03-28T12:07:15.251Z,59.18
2019-03-28T12:08:15.247Z,60.52
2019-03-28T12:09:15.244Z,58.80
2019-03-28T12:10:15.238Z,56.98
2019-03-28T12:11:15.234Z,55.93
2019-03-28T12:12:15.229Z,57.55
2019-03-28T12:13:15.225Z,60.74
2019-03-28T12:14:15.225Z,58.83
2019-03-28T12:15:15.218Z,59.69
2019-03-28T12:16:15.212Z,59.43
2019-03-28T12:17:15.208Z,57.13
2019-03-28T12:18:15.207Z,55.73
2019-03-28T12:19:17.749Z,55.63
2019-03-28T12:20:15.198Z,57.64
2019-03-28T12:21:15.195Z,56.71
2019-03-28T12:22:15.192Z,57.19
2019-03-28T12:23:15.256Z,55.65
2019-03-28T12:24:15.185Z,55.63
2019-03-28T12:25:15.248Z,56.42
2019-03-28T12:26:15.181Z,58.12
2019-03-28T12:27:15.179Z,57.95
2019-03-28T12:28:15.176Z,55.18
2019-03-28T12:29:15.176Z,55.75
2019-03-28T12:30:16.217Z,55.68
2019-03-28T12:31:15.172Z,55.49
2019-03-28T12:32:15.167Z,54.72
2019-03-28T12:33:15.164Z,54.82
2019-03-28T12:34:15.163Z,55.62
2019-03-28T12:35:15.162Z,53.03
2019-03-28T12:36:15.159Z,54.08
2019-03-28T12:37:15.157Z,53.79
2019-03-28T12:38:15.155Z,51.68
2019-03-28T12:39:15.738Z,50.34
2019-03-28T12:40:15.156Z,50.51
2019-03-28T12:41:15.150Z,50.58
2019-03-28T12:42:15.148Z,51.82
2019-03-28T12:43:15.149Z,53.16
2019-03-28T12:44:15.142Z,52.42
2019-03-28T12:45:15.149Z,53.86
2019-03-28T12:46:15.139Z,54.85
2019-03-28T12:47:15.137Z,53.70
2019-03-28T12:48:15.139Z,53.79
2019-03-28T12:49:15.134Z,54.08
2019-03-28T12:50:15.132Z,54.11
2019-03-28T12:51:15.148Z,52.48
2019-03-28T12:52:15.129Z,50.39